createdAt,value
2018-03-19T00:00:29.476Z,11.07
2018-03-19T00:02:57.784Z,11.10
2018-03-19T00:05:25.861Z,11.27
2018-03-19T00:07:53.976Z,10.73
2018-03-19T00:10:21.353Z,11.53
2018-03-19T00:12:48.872Z,10.83
2018-03-19T00:15:17.160Z,10.33
2018-03-19T00:17:44.525Z,10.60
2018-03-19T00:20:12.637Z,11.30
2018-03-19T00:22:41.002Z,9.57
2018-03-19T00:25:09.125Z,10.63
2018-03-19T00:27:36.515Z,10.23
2018-03-19T00:30:04.660Z,10.00
2018-03-19T00:32:32.056Z,10.57
2018-03-19T00:34:59.375Z,10.73
2018-03-19T00:37:27.655Z,10.77
2018-03-19T00:39:55.035Z,10.40
2018-03-19T00:42:23.300Z,10.87
2018-03-19T00:44:51.602Z,11.10
2018-03-19T00:47:19.723Z,10.37
2018-03-19T00:49:47.048Z,10.50
2018-03-19T00:52:15.332Z,10.40
2018-03-19T00:54:42.738Z,10.83
2018-03-19T00:57:10.827Z,9.70
2018-03-19T00:59:38.899Z,10.00
2018-03-19T01:02:06.265Z,10.20
2018-03-19T01:04:34.335Z,11.03
2018-03-19T01:07:01.722Z,10.57
2018-03-19T01:09:29.780Z,10.80
2018-03-19T01:11:57.150Z,9.80
2018-03-19T01:14:25.302Z,9.40
2018-03-19T01:16:52.649Z,10.50
2018-03-19T01:19:20.012Z,11.27
2018-03-19T01:21:48.313Z,11.67
2018-03-19T01:24:15.656Z,11.17
2018-03-19T01:26:42.996Z,10.10
2018-03-19T01:29:11.292Z,9.40
2018-03-19T01:31:38.643Z,10.70
2018-03-19T01:34:05.993Z,11.03
2018-03-19T01:36:34.056Z,10.47
2018-03-19T01:39:01.497Z,9.73
2018-03-19T01:41:28.928Z,10.23
2018-03-19T01:43:57.080Z,9.97
2018-03-19T01:46:24.488Z,10.13
2018-03-19T01:48:52.749Z,10.50
2018-03-19T01:51:20.082Z,10.73
2018-03-19T01:53:47.459Z,10.07
2018-03-19T01:56:15.530Z,10.90
2018-03-19T01:58:42.933Z,9.33
2018-03-19T02:01:11.199Z,9.20
2018-03-19T02:03:39.230Z,10.10
2018-03-19T02:06:06.732Z,10.67
2018-03-19T02:08:34.120Z,9.47
2018-03-19T02:11:02.434Z,10.93
2018-03-19T02:13:29.888Z,10.37
2018-03-19T02:15:58.208Z,10.37
2018-03-19T02:18:25.532Z,11.10
2018-03-19T02:20:53.761Z,10.60
2018-03-19T02:23:22.140Z,10.87
2018-03-19T02:25:50.420Z,9.80
2018-03-19T02:28:18.608Z,11.63
2018-03-19T02:30:46.005Z,11.13
2018-03-19T02:33:13.555Z,10.47
2018-03-19T02:35:41.012Z,9.70
2018-03-19T02:38:09.100Z,10.90
2018-03-19T02:40:37.364Z,10.00
2018-03-19T02:43:04.723Z,9.67
2018-03-19T02:45:32.405Z,10.43
2018-03-19T02:48:00.676Z,10.57
2018-03-19T02:50:28.773Z,10.90
2018-03-19T02:52:56.131Z,10.60
2018-03-19T02:55:24.264Z,11.27
2018-03-19T02:57:51.609Z,11.10
2018-03-19T03:00:19.135Z,10.73
2018-03-19T03:02:47.403Z,10.67
2018-03-19T03:05:15.040Z,10.60
2018-03-19T03:07:43.116Z,10.97
2018-03-19T03:10:11.192Z,10.87
2018-03-19T03:12:39.439Z,10.27
2018-03-19T03:15:07.559Z,11.23
2018-03-19T03:17:35.304Z,10.17
2018-03-19T03:20:02.849Z,11.67
2018-03-19T03:22:31.132Z,10.70
2018-03-19T03:24:59.246Z,10.73
2018-03-19T03:27:26.714Z,10.20
2018-03-19T03:29:54.068Z,10.50
2018-03-19T03:32:21.512Z,11.13
2018-03-19T03:34:49.600Z,10.50
2018-03-19T03:37:17.101Z,10.73
2018-03-19T03:39:44.458Z,10.23
2018-03-19T03:42:12.735Z,10.30
2018-03-19T03:44:40.834Z,10.63
2018-03-19T03:47:09.082Z,10.70
2018-03-19T03:49:36.464Z,10.93
2018-03-19T03:52:03.823Z,10.63
2018-03-19T03:54:31.944Z,11.23
2018-03-19T03:57:00.033Z,9.93
2018-03-19T03:59:28.096Z,10.30
2018-03-19T04:01:56.387Z,11.07
2018-03-19T04:04:24.511Z,10.57
2018-03-19T04:06:51.843Z,10.83
2018-03-19T04:09:19.205Z,10.97
2018-03-19T04:11:47.295Z,10.50
2018-03-19T04:14:14.954Z,11.60
2018-03-19T04:16:42.314Z,11.23
2018-03-19T04:19:10.571Z,11.20
2018-03-19T04:21:37.936Z,9.83
2018-03-19T04:24:05.266Z,10.87
2018-03-19T04:26:33.722Z,9.87
2018-03-19T04:29:02.014Z,9.37
2018-03-19T04:31:29.371Z,10.27
2018-03-19T04:33:56.765Z,11.40
2018-03-19T04:36:24.145Z,11.53
2018-03-19T04:38:51.572Z,11.33
2018-03-19T04:41:19.858Z,9.97
2018-03-19T04:43:47.206Z,11.87
2018-03-19T04:46:15.505Z,10.17
2018-03-19T04:48:43.570Z,11.73
2018-03-19T04:51:11.837Z,11.60
2018-03-19T04:53:39.169Z,10.23
2018-03-19T04:56:06.518Z,10.40
2018-03-19T04:58:33.967Z,10.77
2018-03-19T05:01:02.062Z,10.13
2018-03-19T05:03:29.496Z,10.73
2018-03-19T05:05:56.816Z,11.40
2018-03-19T05:08:24.224Z,10.63
2018-03-19T05:10:52.536Z,10.67
2018-03-19T05:13:20.673Z,10.60
2018-03-19T05:15:48.967Z,10.87
2018-03-19T05:18:16.332Z,11.00
2018-03-19T05:20:44.526Z,10.10
2018-03-19T05:23:11.868Z,10.53
2018-03-19T05:25:40.119Z,10.50
2018-03-19T05:28:08.462Z,10.87
2018-03-19T05:30:35.925Z,10.80
2018-03-19T05:33:03.380Z,10.37
2018-03-19T05:35:31.687Z,10.27
2018-03-19T05:37:59.007Z,9.93
2018-03-19T05:40:26.372Z,11.50
2018-03-19T05:42:53.744Z,10.40
2018-03-19T05:45:21.148Z,11.07
2018-03-19T05:47:49.228Z,11.10
2018-03-19T05:50:16.598Z,10.13
2018-03-19T05:52:43.933Z,10.83
2018-03-19T05:55:11.293Z,11.07
2018-03-19T05:57:39.391Z,10.47
2018-03-19T06:00:07.660Z,11.63
2018-03-19T06:02:35.184Z,11.30
2018-03-19T06:05:02.529Z,11.20
2018-03-19T06:07:29.860Z,10.97
2018-03-19T06:09:57.364Z,10.77
2018-03-19T06:12:24.975Z,10.00
2018-03-19T06:14:52.592Z,10.83
2018-03-19T06:17:20.213Z,11.90
2018-03-19T06:19:47.784Z,11.07
2018-03-19T06:22:15.187Z,11.63
2018-03-19T06:24:43.531Z,11.80
2018-03-19T06:27:11.607Z,10.77
2018-03-19T06:29:39.333Z,10.83
2018-03-19T06:32:07.612Z,10.30
2018-03-19T06:34:35.712Z,10.93
2018-03-19T06:37:03.213Z,10.20
2018-03-19T06:39:30.592Z,11.43
2018-03-19T06:41:58.716Z,11.70
2018-03-19T06:44:27.063Z,11.57
2018-03-19T06:46:54.522Z,11.33
2018-03-19T06:49:21.883Z,10.33
2018-03-19T06:51:50.452Z,11.23
2018-03-19T06:54:18.758Z,11.50
2018-03-19T06:56:47.050Z,11.73
2018-03-19T06:59:15.115Z,10.93
2018-03-19T07:01:42.492Z,11.53
2018-03-19T07:04:10.771Z,11.23
2018-03-19T07:06:38.176Z,10.13
2018-03-19T07:09:05.541Z,11.90
2018-03-19T07:11:32.978Z,11.53
2018-03-19T07:14:00.360Z,11.03
2018-03-19T07:16:28.704Z,11.70
2018-03-19T07:18:56.797Z,11.23
2018-03-19T07:21:24.181Z,10.20
2018-03-19T07:23:52.496Z,11.00
2018-03-19T07:26:19.828Z,11.60
2018-03-19T07:28:47.248Z,11.30
2018-03-19T07:31:15.336Z,13.43
2018-03-19T07:33:42.755Z,13.07
2018-03-19T07:36:10.987Z,12.30
2018-03-19T07:38:39.118Z,11.43
2018-03-19T07:41:06.469Z,11.70
2018-03-19T07:43:34.651Z,12.27
2018-03-19T07:46:02.041Z,12.20
2018-03-19T07:48:30.542Z,12.50
2018-03-19T07:50:58.803Z,12.80
2018-03-19T07:53:27.083Z,12.87
2018-03-19T07:55:55.162Z,11.93
2018-03-19T07:58:22.517Z,12.87
2018-03-19T08:00:50.808Z,10.93
2018-03-19T08:03:18.862Z,12.33
2018-03-19T08:05:47.037Z,11.93
2018-03-19T08:08:14.416Z,12.27
2018-03-19T08:10:42.574Z,13.03
2018-03-19T08:13:10.870Z,12.73
2018-03-19T08:15:39.177Z,10.37
2018-03-19T08:18:06.625Z,12.47
2018-03-19T08:20:34.093Z,12.70
2018-03-19T08:23:02.167Z,12.03
2018-03-19T08:25:29.528Z,13.33
2018-03-19T08:27:57.626Z,11.73
2018-03-19T08:30:25.760Z,10.50
2018-03-19T08:32:54.027Z,12.67
2018-03-19T08:35:22.183Z,11.57
2018-03-19T08:37:49.534Z,13.90
2018-03-19T08:40:16.921Z,12.13
2018-03-19T08:42:45.184Z,11.53
2018-03-19T08:45:13.293Z,12.50
2018-03-19T08:47:41.543Z,12.27
2018-03-19T08:50:09.903Z,12.90
2018-03-19T08:52:37.231Z,14.07
2018-03-19T08:55:04.631Z,12.63
2018-03-19T08:57:32.782Z,13.93
2018-03-19T09:00:00.164Z,13.50
2018-03-19T09:02:27.521Z,13.27
2018-03-19T09:04:54.929Z,11.63
2018-03-19T09:07:23.057Z,12.83
2018-03-19T09:09:50.384Z,14.27
2018-03-19T09:12:17.770Z,13.83
2018-03-19T09:14:45.176Z,13.37
2018-03-19T09:17:12.558Z,14.23
2018-03-19T09:19:40.825Z,13.17
2018-03-19T09:22:08.260Z,12.60
2018-03-19T09:24:35.596Z,12.77
2018-03-19T09:27:03.883Z,14.13
2018-03-19T09:29:32.184Z,13.37
2018-03-19T09:32:00.300Z,12.20
2018-03-19T09:34:28.630Z,14.03
2018-03-19T09:36:56.817Z,14.17
2018-03-19T09:39:24.270Z,13.73
2018-03-19T09:41:51.617Z,13.33
2018-03-19T09:44:19.090Z,13.37
2018-03-19T09:46:46.433Z,13.90
2018-03-19T09:49:14.716Z,13.10
2018-03-19T09:51:42.048Z,12.77
2018-03-19T09:54:09.412Z,12.93
2018-03-19T09:56:36.727Z,12.57
2018-03-19T09:59:04.080Z,12.80
2018-03-19T10:01:32.179Z,13.73
2018-03-19T10:03:59.533Z,12.67
2018-03-19T10:06:26.908Z,12.73
2018-03-19T10:08:55.176Z,13.37
2018-03-19T10:11:22.578Z,13.53
2018-03-19T10:13:50.995Z,13.43
2018-03-19T10:16:19.182Z,11.90
2018-03-19T10:18:46.655Z,12.47
2018-03-19T10:21:13.997Z,11.80
2018-03-19T10:23:42.303Z,13.20
2018-03-19T10:26:10.464Z,13.10
2018-03-19T10:28:38.045Z,12.00
2018-03-19T10:31:05.373Z,12.40
2018-03-19T10:33:33.648Z,12.63
2018-03-19T10:36:01.011Z,12.50
2018-03-19T10:38:29.176Z,12.43
2018-03-19T10:40:56.649Z,12.83
2018-03-19T10:43:23.990Z,11.87
2018-03-19T10:45:51.358Z,12.63
2018-03-19T10:48:19.745Z,12.80
2018-03-19T10:50:47.887Z,12.90
2018-03-19T10:53:16.013Z,12.50
2018-03-19T10:55:43.377Z,13.93
2018-03-19T10:58:10.897Z,12.90
2018-03-19T11:00:39.183Z,11.63
2018-03-19T11:03:07.439Z,12.60
2018-03-19T11:05:40.881Z,11.93
2018-03-19T11:08:08.274Z,12.67
2018-03-19T11:10:35.619Z,12.97
2018-03-19T11:13:03.775Z,13.20
2018-03-19T11:15:31.164Z,12.53
2018-03-19T11:17:58.707Z,12.77
2018-03-19T11:20:26.039Z,13.40
2018-03-19T11:22:53.462Z,12.20
2018-03-19T11:25:21.692Z,12.77
2018-03-19T11:27:49.075Z,12.77
2018-03-19T11:30:17.156Z,12.93
2018-03-19T11:32:45.316Z,12.83
2018-03-19T11:35:13.712Z,12.83
2018-03-19T11:37:41.798Z,13.17
2018-03-19T11:40:09.899Z,12.73
2018-03-19T11:42:37.994Z,12.90
2018-03-19T11:45:06.403Z,13.47
2018-03-19T11:47:34.479Z,12.33
2018-03-19T11:50:02.990Z,13.60
2018-03-19T11:52:31.116Z,13.43
2018-03-19T11:54:58.585Z,13.30
2018-03-19T11:57:26.842Z,12.13
2018-03-19T11:59:54.212Z,12.77
2018-03-19T12:02:22.358Z,13.20
2018-03-19T12:04:50.695Z,13.33
2018-03-19T12:07:18.780Z,12.90
2018-03-19T12:09:46.164Z,12.80
2018-03-19T12:12:13.539Z,13.20
2018-03-19T12:14:41.675Z,12.67
2018-03-19T12:17:09.043Z,14.03
2018-03-19T12:19:36.491Z,12.87
2018-03-19T12:22:03.824Z,13.57
2018-03-19T12:24:32.052Z,13.63
2018-03-19T12:26:59.475Z,13.53
2018-03-19T12:29:27.716Z,12.73
2018-03-19T12:31:55.845Z,12.53
2018-03-19T12:34:24.032Z,13.13
2018-03-19T12:36:52.108Z,11.87
2018-03-19T12:39:20.388Z,13.03
2018-03-19T12:41:48.594Z,12.80
2018-03-19T12:44:16.036Z,13.73
2018-03-19T12:46:44.156Z,13.33
2018-03-19T12:49:12.493Z,13.17
2018-03-19T12:51:40.575Z,13.13
2018-03-19T12:54:08.113Z,12.77
2018-03-19T12:56:35.448Z,13.20
2018-03-19T12:59:03.628Z,13.47
2018-03-19T13:01:31.011Z,12.07
2018-03-19T13:03:59.308Z,12.20
2018-03-19T13:06:26.763Z,12.43
2018-03-19T13:08:54.154Z,12.27
2018-03-19T13:11:22.436Z,13.70
2018-03-19T13:13:50.565Z,12.37
2018-03-19T13:16:17.968Z,13.97
2018-03-19T13:18:46.216Z,13.90
2018-03-19T13:21:13.549Z,12.10
2018-03-19T13:23:40.899Z,12.20
2018-03-19T13:26:09.139Z,12.37
2018-03-19T13:28:37.232Z,12.20
2018-03-19T13:31:05.346Z,13.23
2018-03-19T13:33:32.753Z,14.30
2018-03-19T13:36:00.908Z,13.67
2018-03-19T13:38:29.041Z,13.17
2018-03-19T13:40:57.141Z,11.50
2018-03-19T13:43:24.556Z,12.97
2018-03-19T13:45:51.916Z,12.87
2018-03-19T13:48:20.021Z,12.87
2018-03-19T13:50:48.389Z,11.60
2018-03-19T13:53:15.708Z,12.37
2018-03-19T13:55:43.812Z,12.17
2018-03-19T13:58:12.184Z,12.90
2018-03-19T14:00:40.342Z,12.03
2018-03-19T14:03:08.409Z,12.40
2018-03-19T14:05:36.663Z,12.80
2018-03-19T14:08:05.000Z,12.07
2018-03-19T14:10:33.109Z,12.43
2018-03-19T14:13:00.505Z,13.57
2018-03-19T14:15:28.872Z,12.87
2018-03-19T14:17:56.208Z,12.37
2018-03-19T14:20:23.627Z,10.30
2018-03-19T14:22:51.730Z,11.90
2018-03-19T14:25:19.106Z,11.87
2018-03-19T14:27:47.474Z,10.90
2018-03-19T14:30:15.492Z,12.30
2018-03-19T14:32:43.811Z,12.60
2018-03-19T14:35:11.216Z,12.53
2018-03-19T14:37:39.468Z,11.40
2018-03-19T14:40:07.620Z,12.37
2018-03-19T14:42:34.987Z,11.50
2018-03-19T14:45:03.293Z,11.40
2018-03-19T14:47:31.571Z,11.30
2018-03-19T14:49:59.671Z,12.53
2018-03-19T14:52:27.801Z,13.30
2018-03-19T14:54:55.153Z,12.93
2018-03-19T14:57:23.464Z,12.27
2018-03-19T14:59:51.580Z,11.70
2018-03-19T15:02:19.008Z,12.23
2018-03-19T15:04:47.289Z,13.43
2018-03-19T15:07:14.761Z,12.83
2018-03-19T15:09:43.040Z,13.50
2018-03-19T15:12:11.140Z,13.17
2018-03-19T15:14:38.568Z,13.30
2018-03-19T15:17:06.997Z,13.17
2018-03-19T15:19:35.095Z,14.27
2018-03-19T15:22:03.372Z,12.93
2018-03-19T15:24:31.508Z,13.57
2018-03-19T15:26:59.788Z,12.10
2018-03-19T15:29:27.912Z,13.03
2018-03-19T15:31:56.277Z,14.07
2018-03-19T15:34:23.641Z,13.27
2018-03-19T15:36:50.984Z,11.43
2018-03-19T15:39:19.110Z,12.60
2018-03-19T15:41:47.188Z,13.17
2018-03-19T15:44:15.317Z,13.33
2018-03-19T15:46:43.584Z,12.63
2018-03-19T15:49:10.962Z,13.27
2018-03-19T15:51:39.065Z,13.20
2018-03-19T15:54:07.348Z,12.03
2018-03-19T15:56:36.130Z,13.90
2018-03-19T15:59:03.517Z,13.87
2018-03-19T16:01:31.671Z,14.00
2018-03-19T16:03:59.156Z,14.03
2018-03-19T16:06:26.529Z,13.23
2018-03-19T16:08:53.968Z,12.87
2018-03-19T16:11:21.370Z,14.37
2018-03-19T16:13:56.715Z,14.83
2018-03-19T16:16:24.121Z,14.47
2018-03-19T16:18:51.481Z,14.07
2018-03-19T16:21:18.893Z,12.90
2018-03-19T16:23:47.029Z,13.87
2018-03-19T16:26:14.409Z,13.13
2018-03-19T16:28:42.492Z,13.57
2018-03-19T16:31:10.655Z,11.73
2018-03-19T16:33:39.126Z,13.67
2018-03-19T16:36:07.413Z,14.37
2018-03-19T16:38:35.661Z,12.77
2018-03-19T16:41:03.033Z,13.83
2018-03-19T16:43:31.164Z,13.30
2018-03-19T16:45:58.529Z,12.37
2018-03-19T16:48:25.992Z,13.87
2018-03-19T16:50:53.341Z,15.10
2018-03-19T16:53:21.652Z,14.43
2018-03-19T16:55:49.907Z,12.80
2018-03-19T16:58:17.299Z,13.17
2018-03-19T17:00:44.775Z,13.30
2018-03-19T17:03:14.930Z,12.93
2018-03-19T17:05:51.323Z,12.63
2018-03-19T17:08:18.881Z,11.67
2018-03-19T17:10:46.986Z,11.70
2018-03-19T17:13:14.406Z,21.07
2018-03-19T17:15:42.684Z,12.27
2018-03-19T17:18:10.967Z,12.60
2018-03-19T17:20:38.471Z,12.47
2018-03-19T17:23:06.665Z,12.90
2018-03-19T17:25:34.061Z,11.73
2018-03-19T17:28:01.482Z,12.97
2018-03-19T17:30:28.930Z,12.37
2018-03-19T17:32:56.331Z,11.70
2018-03-19T17:35:23.738Z,12.50
2018-03-19T17:37:51.237Z,12.20
2018-03-19T17:40:18.721Z,12.03
2018-03-19T17:42:46.138Z,10.67
2018-03-19T17:45:13.512Z,11.27
2018-03-19T17:47:40.945Z,11.77
2018-03-19T17:50:08.465Z,23.07
2018-03-19T17:52:36.021Z,10.87
2018-03-19T17:55:04.340Z,16.03
2018-03-19T17:57:32.466Z,22.70
2018-03-19T17:59:59.910Z,18.80
2018-03-19T18:02:27.267Z,12.53
2018-03-19T18:04:54.730Z,13.20
2018-03-19T18:07:22.168Z,11.53
2018-03-19T18:09:49.598Z,12.70
2018-03-19T18:12:17.169Z,12.93
2018-03-19T18:14:44.842Z,11.43
2018-03-19T18:17:12.258Z,12.67
2018-03-19T18:19:40.072Z,13.10
2018-03-19T18:22:08.471Z,12.90
2018-03-19T18:24:36.906Z,12.53
2018-03-19T18:27:04.402Z,11.83
2018-03-19T18:29:31.872Z,13.10
2018-03-19T18:31:59.307Z,13.23
2018-03-19T18:34:26.813Z,12.90
2018-03-19T18:36:54.961Z,11.47
2018-03-19T18:39:22.409Z,11.30
2018-03-19T18:41:49.810Z,11.87
2018-03-19T18:44:17.250Z,10.20
2018-03-19T18:46:44.654Z,11.27
2018-03-19T18:49:12.113Z,11.60
2018-03-19T18:51:39.458Z,12.13
2018-03-19T18:54:06.863Z,11.83
2018-03-19T18:56:34.486Z,10.13
2018-03-19T18:59:01.896Z,10.83
2018-03-19T19:01:29.300Z,10.80
2018-03-19T19:03:56.667Z,10.87
2018-03-19T19:06:24.216Z,10.63
2018-03-19T19:08:51.611Z,11.40
2018-03-19T19:11:19.015Z,10.97
2018-03-19T19:13:46.565Z,10.63
2018-03-19T19:16:13.964Z,10.63
2018-03-19T19:18:41.924Z,10.27
2018-03-19T19:21:09.483Z,9.87
2018-03-19T19:23:36.895Z,10.43
2018-03-19T19:26:04.361Z,10.90
2018-03-19T19:28:31.958Z,10.80
2018-03-19T19:31:00.338Z,10.70
2018-03-19T19:33:28.549Z,10.47
2018-03-19T19:35:56.764Z,9.70
2018-03-19T19:38:24.648Z,10.10
2018-03-19T19:40:52.067Z,10.70
2018-03-19T19:43:19.505Z,9.87
2018-03-19T19:45:46.910Z,10.30
2018-03-19T19:48:14.311Z,9.90
2018-03-19T19:50:41.756Z,10.47
2018-03-19T19:53:09.359Z,9.03
2018-03-19T19:55:36.969Z,8.83
2018-03-19T19:58:06.861Z,10.17
2018-03-19T20:00:34.247Z,9.93
2018-03-19T20:03:01.694Z,10.00
2018-03-19T20:05:29.839Z,9.53
2018-03-19T20:07:58.205Z,9.43
2018-03-19T20:10:25.606Z,10.10
2018-03-19T20:12:53.012Z,9.63
2018-03-19T20:15:20.580Z,10.33
2018-03-19T20:17:47.937Z,9.17
2018-03-19T20:20:15.352Z,10.00
2018-03-19T20:22:42.804Z,9.93
2018-03-19T20:25:10.192Z,9.10
2018-03-19T20:27:37.564Z,10.70
2018-03-19T20:30:05.049Z,9.80
2018-03-19T20:32:32.500Z,8.97
2018-03-19T20:35:00.983Z,9.70
2018-03-19T20:37:28.529Z,9.57
2018-03-19T20:39:57.087Z,9.90
2018-03-19T20:42:24.456Z,9.17
2018-03-19T20:44:51.853Z,10.10
2018-03-19T20:47:19.352Z,10.20
2018-03-19T20:49:47.712Z,9.70
2018-03-19T20:52:15.107Z,10.60
2018-03-19T20:54:43.393Z,9.73
2018-03-19T20:57:12.033Z,9.40
2018-03-19T20:59:39.432Z,9.17
2018-03-19T21:02:06.851Z,9.73
2018-03-19T21:04:34.987Z,9.77
2018-03-19T21:07:03.293Z,9.67
2018-03-19T21:09:31.412Z,9.80
2018-03-19T21:11:59.062Z,9.90
2018-03-19T21:14:27.380Z,9.10
2018-03-19T21:16:55.507Z,9.57
2018-03-19T21:19:22.858Z,10.10
2018-03-19T21:21:50.431Z,9.80
2018-03-19T21:24:18.810Z,8.97
2018-03-19T21:26:47.139Z,10.03
2018-03-19T21:29:15.440Z,9.47
2018-03-19T21:31:43.580Z,10.77
2018-03-19T21:34:11.739Z,10.07
2018-03-19T21:36:39.852Z,9.70
2018-03-19T21:39:08.038Z,10.20
2018-03-19T21:41:35.420Z,10.30
2018-03-19T21:44:02.932Z,9.67
2018-03-19T21:46:30.306Z,11.03
2018-03-19T21:48:57.732Z,10.73
2018-03-19T21:51:25.837Z,10.23
2018-03-19T21:53:54.132Z,11.27
2018-03-19T21:56:22.335Z,10.27
2018-03-19T21:58:50.613Z,10.43
2018-03-19T22:01:18.888Z,10.37
2018-03-19T22:03:46.265Z,10.87
2018-03-19T22:06:13.616Z,10.37
2018-03-19T22:08:41.695Z,11.13
2018-03-19T22:11:09.119Z,10.67
2018-03-19T22:13:37.269Z,9.57
2018-03-19T22:16:05.588Z,12.27
2018-03-19T22:18:33.678Z,11.83
2018-03-19T22:21:01.076Z,10.67
2018-03-19T22:23:29.252Z,12.20
2018-03-19T22:25:57.538Z,11.30
2018-03-19T22:28:24.932Z,12.10
2018-03-19T22:30:52.445Z,12.07
2018-03-19T22:33:20.740Z,11.70
2018-03-19T22:35:49.030Z,11.97
2018-03-19T22:38:17.121Z,11.93
2018-03-19T22:40:45.404Z,10.70
2018-03-19T22:43:13.529Z,12.03
2018-03-19T22:45:41.799Z,11.70
2018-03-19T22:48:09.892Z,10.87
2018-03-19T22:50:38.116Z,11.27
2018-03-19T22:53:06.447Z,11.23
2018-03-19T22:55:34.563Z,11.67
2018-03-19T22:58:02.868Z,11.03
2018-03-19T23:00:30.945Z,11.13
2018-03-19T23:02:59.230Z,11.63
2018-03-19T23:05:27.328Z,9.33
2018-03-19T23:07:55.727Z,11.27
2018-03-19T23:10:23.099Z,10.87
2018-03-19T23:12:51.391Z,11.60
2018-03-19T23:15:18.880Z,11.23
2018-03-19T23:17:47.155Z,10.83
2018-03-19T23:20:14.575Z,10.67
2018-03-19T23:22:41.929Z,10.83
2018-03-19T23:25:10.239Z,10.03
2018-03-19T23:27:37.696Z,11.10
2018-03-19T23:30:06.418Z,10.40
2018-03-19T23:32:34.496Z,11.13
2018-03-19T23:35:01.855Z,11.60
2018-03-19T23:37:29.296Z,11.10
2018-03-19T23:39:57.568Z,11.03
2018-03-19T23:42:25.692Z,10.53
2018-03-19T23:44:53.007Z,10.50
2018-03-19T23:47:20.367Z,10.90
2018-03-19T23:49:48.636Z,10.63
2018-03-19T23:52:16.000Z,11.33
2018-03-19T23:54:43.495Z,11.27
2018-03-19T23:57:11.618Z,11.40
2018-03-19T23:59:38.958Z,10.53
